Forside
METAR-TAF:

METAR-TAF

Lufthavne :

Olieplatform

Ula, Norge

Breddekreds: 59-06-39N, længdekreds: 2-50-45E, højde: 0 m

Aktuelle vejr

Denne rapport blev lavet for 31 minutter siden, kl. 13:50 UTC
Vind 22 kt fra vest
Temperatur 7°C
Fugtighed 81%
Tryk 1028 hPa
Sigt 10 km eller mere

METAR: ENLA 311350Z AUTO 27022KT 9999NDV BKN017/// 07/04 Q1028 W///S4

Tid: 16:21 (14:21 UTC)


TAF: fraværende

Vejrobservationer og prognoser fra mere end 4000 lufthavne (METAR og TAF).

De gule og røde prikker repræsenterer de meteorologiske stationer.

Flyt musen over at se navnet på stationen.

Så klik over at se vejr observationer og prognoser.

At skifte det kort: Klik på de grønne knapper med et sort kors for at zoome ind; på den grønne knap med en bindestreg for at zoome ud; eller på de grønne pile for tilstødende kort.


METAR-TAF: